createdAt,value
2019-03-03T00:00:53.188Z,10.95
2019-03-03T00:03:22.095Z,11.12
2019-03-03T00:05:51.007Z,12.20
2019-03-03T00:08:19.870Z,10.63
2019-03-03T00:10:48.923Z,11.65
2019-03-03T00:13:17.836Z,11.05
2019-03-03T00:15:47.046Z,12.40
2019-03-03T00:18:15.956Z,12.13
2019-03-03T00:20:44.862Z,11.63
2019-03-03T00:23:13.770Z,11.20
2019-03-03T00:25:42.604Z,13.10
2019-03-03T00:28:11.694Z,13.10
2019-03-03T00:30:40.596Z,12.10
2019-03-03T00:33:09.505Z,13.15
2019-03-03T00:35:38.333Z,11.22
2019-03-03T00:38:11.819Z,12.93
2019-03-03T00:40:51.370Z,12.30
2019-03-03T00:43:38.964Z,12.33
2019-03-03T00:46:09.553Z,11.00
2019-03-03T00:48:39.998Z,11.83
2019-03-03T00:51:20.906Z,12.15
2019-03-03T00:53:51.528Z,12.13
2019-03-03T00:56:21.967Z,8.73
2019-03-03T00:58:52.514Z,12.58
2019-03-03T01:01:25.929Z,12.20
2019-03-03T01:03:56.371Z,12.25
2019-03-03T01:06:26.913Z,12.35
2019-03-03T01:09:00.118Z,12.07
2019-03-03T01:11:48.676Z,13.28
2019-03-03T01:14:28.230Z,12.23
2019-03-03T01:16:58.874Z,13.00
2019-03-03T01:19:44.587Z,13.40
2019-03-03T01:22:20.844Z,12.82
2019-03-03T01:24:54.359Z,13.50
2019-03-03T01:27:23.469Z,13.93
2019-03-03T01:29:52.375Z,13.40
2019-03-03T01:32:21.284Z,12.70
2019-03-03T01:34:50.196Z,12.95
2019-03-03T01:37:19.099Z,12.35
2019-03-03T01:39:48.008Z,13.72
2019-03-03T01:42:16.914Z,13.13
2019-03-03T01:44:45.823Z,13.13
2019-03-03T01:47:14.737Z,13.38
2019-03-03T01:49:43.640Z,13.18
2019-03-03T01:52:12.554Z,14.45
2019-03-03T01:54:41.437Z,12.82
2019-03-03T01:57:10.364Z,13.58
2019-03-03T01:59:39.271Z,13.00
2019-03-03T02:02:08.280Z,13.55
2019-03-03T02:04:37.189Z,13.65
2019-03-03T02:07:06.197Z,12.93
2019-03-03T02:09:35.105Z,13.18
2019-03-03T02:12:04.015Z,12.43
2019-03-03T02:14:33.025Z,13.50
2019-03-03T02:17:01.931Z,12.93
2019-03-03T02:19:31.252Z,13.32
2019-03-03T02:22:00.155Z,13.70
2019-03-03T02:24:28.984Z,14.00
2019-03-03T02:26:57.974Z,14.47
2019-03-03T02:29:26.880Z,14.18
2019-03-03T02:31:55.890Z,13.85
2019-03-03T02:34:24.799Z,13.38
2019-03-03T02:36:53.708Z,14.25
2019-03-03T02:39:22.614Z,13.75
2019-03-03T02:41:51.506Z,13.93
2019-03-03T02:44:20.445Z,13.85
2019-03-03T02:46:49.442Z,13.95
2019-03-03T02:49:18.347Z,13.60
2019-03-03T02:51:47.181Z,14.20
2019-03-03T02:54:16.164Z,14.70
2019-03-03T02:56:45.071Z,13.75
2019-03-03T02:59:13.979Z,13.38
2019-03-03T03:01:44.421Z,14.28
2019-03-03T03:04:13.329Z,13.88
2019-03-03T03:06:43.773Z,13.98
2019-03-03T03:09:17.434Z,13.90
2019-03-03T03:11:48.035Z,14.60
2019-03-03T03:14:18.586Z,14.43
2019-03-03T03:17:07.138Z,14.40
2019-03-03T03:19:37.583Z,14.18
2019-03-03T03:22:13.662Z,14.25
2019-03-03T03:24:44.306Z,14.65
2019-03-03T03:27:23.856Z,14.13
2019-03-03T03:30:03.403Z,16.12
2019-03-03T03:32:39.680Z,15.03
2019-03-03T03:35:16.468Z,14.68
2019-03-03T03:37:58.728Z,15.95
2019-03-03T03:40:45.803Z,15.70
2019-03-03T03:43:32.928Z,16.07
2019-03-03T03:46:09.613Z,15.75
2019-03-03T03:48:56.742Z,16.82
2019-03-03T03:51:36.188Z,16.40
2019-03-03T03:54:06.736Z,15.98
2019-03-03T03:56:46.081Z,16.95
2019-03-03T03:59:31.980Z,16.25
2019-03-03T04:02:14.701Z,15.30
2019-03-03T04:04:54.046Z,16.27
2019-03-03T04:07:31.142Z,15.93
2019-03-03T04:10:04.553Z,16.93
2019-03-03T04:12:41.033Z,15.93
2019-03-03T04:15:11.682Z,16.45
2019-03-03T04:17:45.226Z,15.80
2019-03-03T04:20:22.193Z,15.98
2019-03-03T04:22:58.464Z,16.20
2019-03-03T04:25:29.009Z,15.03
2019-03-03T04:28:02.627Z,16.70
2019-03-03T04:30:39.207Z,17.10
2019-03-03T04:33:09.755Z,16.82
2019-03-03T04:35:46.137Z,16.05
2019-03-03T04:38:16.676Z,16.40
2019-03-03T04:40:47.119Z,16.20
2019-03-03T04:43:20.633Z,15.28
2019-03-03T04:45:53.838Z,16.93
2019-03-03T04:48:24.384Z,15.68
2019-03-03T04:50:54.827Z,16.67
2019-03-03T04:53:28.035Z,16.32
2019-03-03T04:55:58.476Z,15.90
2019-03-03T04:58:35.060Z,16.60
2019-03-03T05:01:08.061Z,16.17
2019-03-03T05:03:41.372Z,15.85
2019-03-03T05:06:14.475Z,15.68
2019-03-03T05:08:44.923Z,15.63
2019-03-03T05:11:33.272Z,15.75
2019-03-03T05:14:03.713Z,16.12
2019-03-03T05:16:45.924Z,14.78
2019-03-03T05:19:15.138Z,15.13
2019-03-03T05:21:44.047Z,16.30
2019-03-03T05:24:12.954Z,15.63
2019-03-03T05:26:41.862Z,15.20
2019-03-03T05:29:10.769Z,16.05
2019-03-03T05:31:39.677Z,15.98
2019-03-03T05:34:08.586Z,15.65
2019-03-03T05:36:37.477Z,16.07
2019-03-03T05:39:06.896Z,16.57
2019-03-03T05:41:35.821Z,16.87
2019-03-03T05:44:04.727Z,17.02
2019-03-03T05:46:33.618Z,17.52
2019-03-03T05:49:02.546Z,17.32
2019-03-03T05:51:31.451Z,18.30
2019-03-03T05:54:00.359Z,18.75
2019-03-03T05:56:29.269Z,18.80
2019-03-03T05:58:58.175Z,18.42
2019-03-03T06:01:27.184Z,19.25
2019-03-03T06:03:56.049Z,19.00
2019-03-03T06:06:25.001Z,19.60
2019-03-03T06:08:53.909Z,19.70
2019-03-03T06:11:23.022Z,18.45
2019-03-03T06:13:51.929Z,19.70
2019-03-03T06:16:20.921Z,19.98
2019-03-03T06:18:49.847Z,20.00
2019-03-03T06:21:18.754Z,20.72
2019-03-03T06:23:47.664Z,21.23
2019-03-03T06:26:16.571Z,19.27
2019-03-03T06:28:45.478Z,18.98
2019-03-03T06:31:14.309Z,19.45
2019-03-03T06:33:43.293Z,18.60
2019-03-03T06:36:12.201Z,20.15
2019-03-03T06:38:41.108Z,19.45
2019-03-03T06:41:10.017Z,18.98
2019-03-03T06:43:38.924Z,18.75
2019-03-03T06:46:07.939Z,19.42
2019-03-03T06:48:36.945Z,18.37
2019-03-03T06:51:05.851Z,19.80
2019-03-03T06:53:34.862Z,19.75
2019-03-03T06:56:03.773Z,18.30
2019-03-03T06:58:32.683Z,19.48
2019-03-03T07:01:01.689Z,19.45
2019-03-03T07:03:30.697Z,19.23
2019-03-03T07:05:59.605Z,19.05
2019-03-03T07:08:28.514Z,20.17
2019-03-03T07:10:57.424Z,18.73
2019-03-03T07:13:26.329Z,20.57
2019-03-03T07:15:55.238Z,19.50
2019-03-03T07:18:24.146Z,21.07
2019-03-03T07:20:53.052Z,20.20
2019-03-03T07:23:21.964Z,21.82
2019-03-03T07:25:50.869Z,20.85
2019-03-03T07:28:19.878Z,19.82
2019-03-03T07:30:48.872Z,20.72
2019-03-03T07:33:19.741Z,21.68
2019-03-03T07:35:48.651Z,21.97
2019-03-03T07:38:17.557Z,19.25
2019-03-03T07:40:46.469Z,20.10
2019-03-03T07:43:15.372Z,20.27
2019-03-03T07:45:44.282Z,20.43
2019-03-03T07:48:13.186Z,19.60
2019-03-03T07:50:42.097Z,20.02
2019-03-03T07:53:11.106Z,19.35
2019-03-03T07:55:40.115Z,17.85
2019-03-03T07:58:09.026Z,18.32
2019-03-03T08:00:38.035Z,18.17
2019-03-03T08:03:07.043Z,18.37
2019-03-03T08:05:35.960Z,18.17
2019-03-03T08:08:06.292Z,18.73
2019-03-03T08:10:35.204Z,18.73
2019-03-03T08:13:09.180Z,18.40
2019-03-03T08:15:34.655Z,21.20
2019-03-03T08:18:03.561Z,17.57
2019-03-03T08:20:32.572Z,20.97
2019-03-03T08:23:01.479Z,17.62
2019-03-03T08:25:30.497Z,17.80
2019-03-03T08:27:59.396Z,18.20
2019-03-03T08:30:28.306Z,18.82
2019-03-03T08:32:57.301Z,20.97
2019-03-03T08:35:31.550Z,19.55
2019-03-03T08:38:00.454Z,20.08
2019-03-03T08:40:29.465Z,20.65
2019-03-03T08:43:04.199Z,20.85
2019-03-03T08:45:43.655Z,21.87
2019-03-03T08:48:30.676Z,27.13
2019-03-03T08:51:01.324Z,23.95
2019-03-03T08:53:31.872Z,21.57
2019-03-03T08:56:15.953Z,20.82
2019-03-03T08:58:46.263Z,21.80
2019-03-03T09:01:19.572Z,22.30
2019-03-03T09:04:07.823Z,21.20
2019-03-03T09:06:38.235Z,19.98
2019-03-03T09:09:25.703Z,22.00
2019-03-03T09:11:56.246Z,20.27
2019-03-03T09:14:26.786Z,21.12
2019-03-03T09:16:57.333Z,20.43
2019-03-03T09:19:43.949Z,21.97
2019-03-03T09:22:20.633Z,20.90
2019-03-03T09:24:57.225Z,22.98
2019-03-03T09:27:27.663Z,22.37
2019-03-03T09:30:01.175Z,22.00
2019-03-03T09:32:31.622Z,22.22
2019-03-03T09:35:18.538Z,24.15
2019-03-03T09:37:51.842Z,23.35
2019-03-03T09:40:25.355Z,23.77
2019-03-03T09:43:08.089Z,23.12
2019-03-03T09:45:44.564Z,22.98
2019-03-03T09:48:15.005Z,26.68
2019-03-03T09:50:45.420Z,24.25
2019-03-03T09:53:34.212Z,25.82
2019-03-03T09:56:07.722Z,26.50
2019-03-03T09:58:54.335Z,28.30
2019-03-03T10:01:27.643Z,25.92
2019-03-03T10:03:58.290Z,28.32
2019-03-03T10:06:28.701Z,28.50
2019-03-03T10:09:01.941Z,28.75
2019-03-03T10:11:47.224Z,26.68
2019-03-03T10:14:17.771Z,27.90
2019-03-03T10:16:48.210Z,26.02
2019-03-03T10:19:18.654Z,30.02
2019-03-03T10:21:49.095Z,30.10
2019-03-03T10:24:25.380Z,29.50
2019-03-03T10:27:01.958Z,30.30
2019-03-03T10:29:34.836Z,30.20
2019-03-03T10:32:21.572Z,29.92
2019-03-03T10:34:52.116Z,31.93
2019-03-03T10:37:38.729Z,34.90
2019-03-03T10:40:22.888Z,34.25
2019-03-03T10:43:11.041Z,33.67
2019-03-03T10:45:56.522Z,34.43
2019-03-03T10:48:30.037Z,34.63
2019-03-03T10:51:17.019Z,35.85
2019-03-03T10:54:03.774Z,38.17
2019-03-03T10:56:36.961Z,32.00
2019-03-03T10:59:10.286Z,35.15
2019-03-03T11:01:46.563Z,36.10
2019-03-03T11:04:33.593Z,37.88
2019-03-03T11:07:04.133Z,35.40
2019-03-03T11:09:40.719Z,30.45
2019-03-03T11:12:21.590Z,33.78
2019-03-03T11:14:54.806Z,34.30
2019-03-03T11:17:28.317Z,34.25
2019-03-03T11:20:16.873Z,33.35
2019-03-03T11:22:53.355Z,33.75
2019-03-03T11:25:26.568Z,33.85
2019-03-03T11:28:03.132Z,32.30
2019-03-03T11:30:38.569Z,32.15
2019-03-03T11:33:11.200Z,34.70
2019-03-03T11:35:50.848Z,36.98
2019-03-03T11:38:37.365Z,37.42
2019-03-03T11:41:07.909Z,37.42
2019-03-03T11:43:53.802Z,35.35
2019-03-03T11:46:30.645Z,36.60
2019-03-03T11:49:01.216Z,38.78
2019-03-03T11:51:37.514Z,47.38
2019-03-03T11:54:08.061Z,37.88
2019-03-03T11:56:53.649Z,37.20
2019-03-03T11:59:42.415Z,35.33
2019-03-03T12:02:18.380Z,34.03
2019-03-03T12:05:07.133Z,37.03
2019-03-03T12:07:44.544Z,38.38
2019-03-03T12:10:34.171Z,38.20
2019-03-03T12:13:16.747Z,36.45
2019-03-03T12:15:53.227Z,37.42
2019-03-03T12:18:24.771Z,38.55
2019-03-03T12:21:13.342Z,36.08
2019-03-03T12:23:43.790Z,33.23
2019-03-03T12:26:20.073Z,37.93
2019-03-03T12:28:59.527Z,37.08
2019-03-03T12:31:48.387Z,36.73
2019-03-03T12:34:21.899Z,35.17
2019-03-03T12:37:04.520Z,34.20
2019-03-03T12:39:37.835Z,30.80
2019-03-03T12:42:08.377Z,33.85
2019-03-03T12:44:38.820Z,32.53
2019-03-03T12:47:12.133Z,30.05
2019-03-03T12:49:51.575Z,29.70
2019-03-03T12:52:24.676Z,33.10
2019-03-03T12:54:55.125Z,32.13
2019-03-03T12:57:27.106Z,30.10
2019-03-03T13:00:06.860Z,31.15
2019-03-03T13:02:49.479Z,30.05
2019-03-03T13:05:19.979Z,32.50
2019-03-03T13:08:02.853Z,31.17
2019-03-03T13:10:45.176Z,30.00
2019-03-03T13:13:15.609Z,33.15
2019-03-03T13:16:03.141Z,30.30
2019-03-03T13:18:36.655Z,28.62
2019-03-03T13:21:12.728Z,32.05
2019-03-03T13:23:46.958Z,32.63
2019-03-03T13:26:23.130Z,31.17
2019-03-03T13:28:53.675Z,32.03
2019-03-03T13:31:24.225Z,35.78
2019-03-03T13:34:00.499Z,31.23
2019-03-03T13:36:33.911Z,30.45
2019-03-03T13:39:04.456Z,32.25
2019-03-03T13:41:34.898Z,31.17
2019-03-03T13:44:03.804Z,29.40
2019-03-03T13:46:32.814Z,29.05
2019-03-03T13:49:01.704Z,30.35
2019-03-03T13:51:30.835Z,30.02
2019-03-03T13:53:59.743Z,30.75
2019-03-03T13:56:28.752Z,27.35
2019-03-03T13:58:57.662Z,29.02
2019-03-03T14:01:26.772Z,30.72
2019-03-03T14:03:55.682Z,30.20
2019-03-03T14:06:24.776Z,29.18
2019-03-03T14:08:53.702Z,29.30
2019-03-03T14:11:28.947Z,30.45
2019-03-03T14:13:57.967Z,31.00
2019-03-03T14:16:26.905Z,28.27
2019-03-03T14:18:55.987Z,30.00
2019-03-03T14:21:24.893Z,30.50
2019-03-03T14:23:53.801Z,33.42
2019-03-03T14:26:22.707Z,31.55
2019-03-03T14:28:51.615Z,32.98
2019-03-03T14:31:20.627Z,32.00
2019-03-03T14:33:49.534Z,32.23
2019-03-03T14:36:18.443Z,33.20
2019-03-03T14:38:48.354Z,31.42
2019-03-03T14:41:17.280Z,33.00
2019-03-03T14:43:46.188Z,34.48
2019-03-03T14:46:15.079Z,34.20
2019-03-03T14:48:44.004Z,33.23
2019-03-03T14:51:12.911Z,36.88
2019-03-03T14:53:41.819Z,33.33
2019-03-03T14:56:10.727Z,32.88
2019-03-03T14:58:39.636Z,34.33
2019-03-03T15:01:08.529Z,36.58
2019-03-03T15:03:37.553Z,37.95
2019-03-03T15:06:06.464Z,37.30
2019-03-03T15:08:35.369Z,37.25
2019-03-03T15:11:04.380Z,41.00
2019-03-03T15:13:33.389Z,41.85
2019-03-03T15:16:02.398Z,41.75
2019-03-03T15:18:31.307Z,42.00
2019-03-03T15:21:00.317Z,42.30
2019-03-03T15:23:30.145Z,44.30
2019-03-03T15:25:59.054Z,44.88
2019-03-03T15:28:27.945Z,43.52
2019-03-03T15:30:56.870Z,46.90
2019-03-03T15:33:25.885Z,43.60
2019-03-03T15:35:54.889Z,44.10
2019-03-03T15:38:23.797Z,45.92
2019-03-03T15:40:52.813Z,43.92
2019-03-03T15:43:21.716Z,46.60
2019-03-03T15:45:50.624Z,43.33
2019-03-03T15:48:19.534Z,41.70
2019-03-03T15:50:48.698Z,44.77
2019-03-03T15:53:17.653Z,43.95
2019-03-03T15:55:46.549Z,44.03
2019-03-03T15:58:15.573Z,41.75
2019-03-03T16:00:44.480Z,44.73
2019-03-03T16:03:13.390Z,40.08
2019-03-03T16:05:42.387Z,47.75
2019-03-03T16:08:11.307Z,43.03
2019-03-03T16:10:40.214Z,47.27
2019-03-03T16:13:09.220Z,49.40
2019-03-03T16:15:38.130Z,46.45
2019-03-03T16:18:07.040Z,42.17
2019-03-03T16:20:36.055Z,43.95
2019-03-03T16:23:04.891Z,47.23
2019-03-03T16:25:33.868Z,45.05
2019-03-03T16:28:02.705Z,46.10
2019-03-03T16:30:31.681Z,41.83
2019-03-03T16:33:00.588Z,45.23
2019-03-03T16:35:29.501Z,45.63
2019-03-03T16:37:58.506Z,47.60
2019-03-03T16:40:28.542Z,46.08
2019-03-03T16:42:57.447Z,45.08
2019-03-03T16:45:26.388Z,45.63
2019-03-03T16:47:55.569Z,45.73
2019-03-03T16:50:24.810Z,47.03
2019-03-03T16:52:53.693Z,51.23
2019-03-03T16:55:22.984Z,47.50
2019-03-03T16:57:51.901Z,48.28
2019-03-03T17:00:29.832Z,51.73
2019-03-03T17:02:58.652Z,52.62
2019-03-03T17:05:28.756Z,51.28
2019-03-03T17:07:57.669Z,54.73
2019-03-03T17:10:26.588Z,51.48
2019-03-03T17:12:55.496Z,50.83
2019-03-03T17:15:26.661Z,50.78
2019-03-03T17:20:23.745Z,47.00
2019-03-03T17:22:52.662Z,53.48
2019-03-03T17:25:23.732Z,55.40
2019-03-03T17:30:25.000Z,56.18
2019-03-03T17:32:53.923Z,56.48
2019-03-03T17:35:22.830Z,57.23
2019-03-03T17:37:51.737Z,62.23
2019-03-03T17:40:28.347Z,64.00
2019-03-03T17:42:57.336Z,59.42
2019-03-03T17:45:26.649Z,60.20
2019-03-03T17:47:55.658Z,59.10
2019-03-03T17:50:26.595Z,62.53
2019-03-03T17:52:55.727Z,62.53
2019-03-03T17:55:24.738Z,61.55
2019-03-03T17:57:53.645Z,67.87
2019-03-03T18:00:26.033Z,62.25
2019-03-03T18:02:55.078Z,62.33
2019-03-03T18:05:24.136Z,64.58
2019-03-03T18:07:53.282Z,67.37
2019-03-03T18:10:22.690Z,62.17
2019-03-03T18:12:51.704Z,67.60
2019-03-03T18:15:20.607Z,64.67
2019-03-03T18:17:50.579Z,69.10
2019-03-03T18:20:22.922Z,62.65
2019-03-03T18:22:51.865Z,69.62
2019-03-03T18:25:21.477Z,67.92
2019-03-03T18:27:50.569Z,67.05
2019-03-03T18:30:27.564Z,67.87
2019-03-03T18:32:56.672Z,69.80
2019-03-03T18:35:27.489Z,70.17
2019-03-03T18:37:56.235Z,68.37
2019-03-03T18:40:26.088Z,68.12
2019-03-03T18:42:55.272Z,65.70
2019-03-03T18:45:24.489Z,65.65
2019-03-03T18:47:53.603Z,65.05
2019-03-03T18:50:29.875Z,63.30
2019-03-03T18:53:00.037Z,65.00
2019-03-03T18:55:29.330Z,63.40
2019-03-03T18:57:58.339Z,59.95
2019-03-03T19:00:28.679Z,59.90
2019-03-03T19:02:58.337Z,60.33
2019-03-03T19:05:27.825Z,60.92
2019-03-03T19:07:56.732Z,61.00
2019-03-03T19:10:31.258Z,58.10
2019-03-03T19:13:00.281Z,59.10
2019-03-03T19:15:29.391Z,56.48
2019-03-03T19:17:58.300Z,52.90
2019-03-03T19:20:27.207Z,53.98
2019-03-03T19:22:56.116Z,55.25
2019-03-03T19:25:25.023Z,53.42
2019-03-03T19:27:53.931Z,54.00
2019-03-03T19:30:28.672Z,54.67
2019-03-03T19:33:03.294Z,51.80
2019-03-03T19:35:32.220Z,51.28
2019-03-03T19:38:01.128Z,51.75
2019-03-03T19:40:30.035Z,51.48
2019-03-03T19:42:59.047Z,50.43
2019-03-03T19:45:31.126Z,51.95
2019-03-03T19:48:00.037Z,47.45
2019-03-03T19:50:28.942Z,46.08
2019-03-03T19:52:57.955Z,44.42
2019-03-03T19:55:26.861Z,46.77
2019-03-03T19:57:55.774Z,45.33
2019-03-03T20:00:35.080Z,43.48
2019-03-03T20:02:58.690Z,41.42
2019-03-03T20:05:27.692Z,37.23
2019-03-03T20:07:56.618Z,37.42
2019-03-03T20:10:25.528Z,39.48
2019-03-03T20:12:55.663Z,38.55
2019-03-03T20:15:26.311Z,38.13
2019-03-03T20:17:55.221Z,37.65
2019-03-03T20:20:24.126Z,35.63
2019-03-03T20:22:53.134Z,35.40
2019-03-03T20:25:22.028Z,34.03
2019-03-03T20:27:50.954Z,33.50
2019-03-03T20:30:23.852Z,30.77
2019-03-03T20:32:52.859Z,30.62
2019-03-03T20:35:21.896Z,30.60
2019-03-03T20:37:51.020Z,31.60
2019-03-03T20:40:22.347Z,32.50
2019-03-03T20:42:51.457Z,31.48
2019-03-03T20:45:28.534Z,31.75
2019-03-03T20:47:57.665Z,30.52
2019-03-03T20:50:26.689Z,28.02
2019-03-03T20:52:55.713Z,29.98
2019-03-03T20:55:29.304Z,28.73
2019-03-03T20:57:58.213Z,28.62
2019-03-03T21:00:31.298Z,28.90
2019-03-03T21:03:01.922Z,28.90
2019-03-03T21:05:30.867Z,27.55
2019-03-03T21:07:59.776Z,29.67
2019-03-03T21:10:30.938Z,28.60
2019-03-03T21:15:28.080Z,24.95
2019-03-03T21:17:57.043Z,21.90
2019-03-03T21:20:25.955Z,23.55
2019-03-03T21:22:54.851Z,22.95
2019-03-03T21:25:23.774Z,22.80
2019-03-03T21:27:52.677Z,20.75
2019-03-03T21:30:28.532Z,21.07
2019-03-03T21:32:57.554Z,18.82
2019-03-03T21:35:26.462Z,19.50
2019-03-03T21:37:55.470Z,19.30
2019-03-03T21:40:25.304Z,17.50
2019-03-03T21:42:54.313Z,16.45
2019-03-03T21:45:30.057Z,15.88
2019-03-03T21:47:59.084Z,16.30
2019-03-03T21:50:29.430Z,14.33
2019-03-03T21:52:58.332Z,15.83
2019-03-03T21:55:27.239Z,15.32
2019-03-03T21:57:56.148Z,13.10
2019-03-03T22:00:34.165Z,13.90
2019-03-03T22:03:03.072Z,14.40
2019-03-03T22:05:32.038Z,14.45
2019-03-03T22:08:00.999Z,14.13
2019-03-03T22:10:30.104Z,13.95
2019-03-03T22:13:00.852Z,13.85
2019-03-03T22:15:29.758Z,13.78
2019-03-03T22:17:58.596Z,13.95
2019-03-03T22:20:27.558Z,13.18
2019-03-03T22:22:56.585Z,12.58
2019-03-03T22:25:25.597Z,12.95
2019-03-03T22:27:54.503Z,13.05
2019-03-03T22:30:23.615Z,12.85
2019-03-03T22:32:52.523Z,12.35
2019-03-03T22:35:21.422Z,11.55
2019-03-03T22:37:50.343Z,11.40
2019-03-03T22:40:21.603Z,11.03
2019-03-03T22:42:50.554Z,11.20
2019-03-03T22:45:19.727Z,10.03
2019-03-03T22:47:48.634Z,9.28
2019-03-03T22:50:18.662Z,8.88
2019-03-03T22:52:47.560Z,8.65
2019-03-03T22:55:20.660Z,8.60
2019-03-03T22:57:49.671Z,8.18
2019-03-03T23:00:46.841Z,8.13
2019-03-03T23:03:21.891Z,8.13
2019-03-03T23:05:53.767Z,7.65
2019-03-03T23:08:25.645Z,7.75
2019-03-03T23:11:00.288Z,7.00
2019-03-03T23:13:38.091Z,7.05
2019-03-03T23:16:24.910Z,6.92
2019-03-03T23:19:12.037Z,7.50
2019-03-03T23:21:49.641Z,6.97
2019-03-03T23:24:56.933Z,6.45
2019-03-03T23:27:25.835Z,7.42
2019-03-03T23:29:54.745Z,6.83
2019-03-03T23:32:23.651Z,6.60
2019-03-03T23:34:53.379Z,6.80
2019-03-03T23:37:22.285Z,6.65
2019-03-03T23:39:51.340Z,6.35
2019-03-03T23:42:20.228Z,5.92
2019-03-03T23:44:49.212Z,6.58
2019-03-03T23:47:18.123Z,5.85
2019-03-03T23:49:47.235Z,5.42
2019-03-03T23:52:16.141Z,5.25
2019-03-03T23:54:45.049Z,5.83
2019-03-03T23:57:13.971Z,5.35
2019-03-03T23:59:42.864Z,5.28
